createdAt,value
2022-08-20T00:00:26.185Z,9.50
2022-08-20T00:02:54.422Z,9.38
2022-08-20T00:05:23.175Z,10.77
2022-08-20T00:07:49.600Z,9.70
2022-08-20T00:10:16.554Z,12.35
2022-08-20T00:12:44.791Z,15.48
2022-08-20T00:15:12.409Z,11.52
2022-08-20T00:17:39.209Z,11.20
2022-08-20T00:20:08.017Z,12.80
2022-08-20T00:22:34.796Z,9.13
2022-08-20T00:25:01.653Z,13.75
2022-08-20T00:27:28.035Z,13.05
2022-08-20T00:29:54.407Z,15.23
2022-08-20T00:32:20.869Z,15.48
2022-08-20T00:34:47.691Z,14.02
2022-08-20T00:37:14.556Z,14.85
2022-08-20T00:39:41.307Z,13.70
2022-08-20T00:42:08.077Z,14.18
2022-08-20T00:44:34.891Z,14.18
2022-08-20T00:47:04.286Z,14.30
2022-08-20T00:49:31.434Z,13.60
2022-08-20T00:52:03.483Z,13.57
2022-08-20T00:54:33.253Z,13.60
2022-08-20T00:57:08.520Z,15.88
2022-08-20T00:59:37.196Z,14.88
2022-08-20T01:02:05.522Z,19.70
2022-08-20T01:04:33.714Z,11.77
2022-08-20T01:07:00.903Z,14.57
2022-08-20T01:09:49.491Z,12.65
2022-08-20T01:12:15.082Z,12.43
2022-08-20T01:14:47.847Z,12.95
2022-08-20T01:17:19.327Z,11.90
2022-08-20T01:19:51.576Z,11.57
2022-08-20T01:22:40.213Z,12.50
2022-08-20T01:25:12.716Z,11.73
2022-08-20T01:27:42.502Z,13.77
2022-08-20T01:30:10.071Z,11.90
2022-08-20T01:32:36.455Z,12.93
2022-08-20T01:35:03.013Z,11.23
2022-08-20T01:37:31.896Z,12.57
2022-08-20T01:39:59.946Z,14.32
2022-08-20T01:42:59.326Z,12.07
2022-08-20T01:45:29.250Z,13.60
2022-08-20T01:47:57.584Z,15.13
2022-08-20T01:50:26.061Z,14.48
2022-08-20T01:52:59.104Z,16.58
2022-08-20T01:55:27.480Z,15.27
2022-08-20T01:57:54.219Z,16.92
2022-08-20T02:00:21.886Z,14.75
2022-08-20T02:02:49.375Z,14.45
2022-08-20T02:05:16.067Z,17.23
2022-08-20T02:07:42.489Z,15.45
2022-08-20T02:10:10.182Z,14.15
2022-08-20T02:12:36.835Z,10.48
2022-08-20T02:15:04.736Z,10.25
2022-08-20T02:17:31.174Z,11.05
2022-08-20T02:19:58.995Z,11.90
2022-08-20T02:22:31.683Z,12.02
2022-08-20T02:24:58.073Z,11.65
2022-08-20T02:27:24.542Z,12.23
2022-08-20T02:29:51.906Z,9.38
2022-08-20T02:32:32.147Z,11.70
2022-08-20T02:35:02.971Z,7.85
2022-08-20T02:37:29.526Z,9.73
2022-08-20T02:39:55.975Z,8.63
2022-08-20T02:42:22.438Z,8.00
2022-08-20T02:44:48.797Z,8.07
2022-08-20T02:47:15.288Z,8.55
2022-08-20T02:49:41.653Z,7.97
2022-08-20T02:52:08.208Z,8.90
2022-08-20T02:54:35.388Z,11.13
2022-08-20T02:57:03.273Z,9.27
2022-08-20T02:59:29.709Z,6.05
2022-08-20T03:02:00.253Z,12.15
2022-08-20T03:04:29.479Z,7.80
2022-08-20T03:06:56.170Z,8.00
2022-08-20T03:09:22.715Z,7.85
2022-08-20T03:11:49.300Z,9.80
2022-08-20T03:14:15.691Z,6.93
2022-08-20T03:16:43.085Z,8.85
2022-08-20T03:19:09.467Z,11.02
2022-08-20T03:21:35.883Z,7.72
2022-08-20T03:24:02.280Z,6.90
2022-08-20T03:26:28.647Z,7.03
2022-08-20T03:28:55.035Z,9.02
2022-08-20T03:31:21.450Z,8.95
2022-08-20T03:33:48.849Z,8.32
2022-08-20T03:36:22.055Z,9.02
2022-08-20T03:38:55.549Z,15.13
2022-08-20T03:41:21.954Z,6.80
2022-08-20T03:43:48.475Z,8.15
2022-08-20T03:46:23.280Z,6.85
2022-08-20T03:48:59.501Z,9.60
2022-08-20T03:51:28.270Z,7.75
2022-08-20T03:53:54.643Z,8.57
2022-08-20T03:56:21.105Z,7.70
2022-08-20T03:58:47.690Z,6.63
2022-08-20T04:01:45.503Z,8.23
2022-08-20T04:04:00.613Z,7.80
2022-08-20T04:06:29.267Z,7.05
2022-08-20T04:08:56.141Z,8.75
2022-08-20T04:11:23.778Z,6.38
2022-08-20T04:13:50.374Z,6.95
2022-08-20T04:16:17.770Z,6.47
2022-08-20T04:18:56.228Z,9.93
2022-08-20T04:21:30.939Z,8.43
2022-08-20T04:23:59.058Z,7.50
2022-08-20T04:26:25.799Z,5.32
2022-08-20T04:28:53.054Z,5.57
2022-08-20T04:31:24.867Z,5.15
2022-08-20T04:33:51.743Z,5.10
2022-08-20T04:36:18.187Z,5.20
2022-08-20T04:38:50.662Z,6.15
2022-08-20T04:41:22.854Z,4.55
2022-08-20T04:43:50.657Z,4.72
2022-08-20T04:46:17.084Z,5.18
2022-08-20T04:48:48.797Z,5.35
2022-08-20T04:51:16.697Z,5.18
2022-08-20T04:53:43.152Z,9.07
2022-08-20T04:56:09.608Z,7.22
2022-08-20T04:58:38.133Z,8.23
2022-08-20T05:01:08.039Z,5.72
2022-08-20T05:03:34.898Z,5.53
2022-08-20T05:06:01.875Z,5.88
2022-08-20T05:08:28.319Z,5.20
2022-08-20T05:10:56.033Z,7.05
2022-08-20T05:13:27.555Z,5.18
2022-08-20T05:15:54.597Z,4.35
2022-08-20T05:18:22.342Z,5.85
2022-08-20T05:20:48.987Z,6.30
2022-08-20T05:23:18.597Z,6.90
2022-08-20T05:25:45.770Z,5.85
2022-08-20T05:28:13.746Z,7.22
2022-08-20T05:30:41.087Z,7.20
2022-08-20T05:33:08.429Z,6.18
2022-08-20T05:35:38.480Z,6.30
2022-08-20T05:38:09.144Z,4.00
2022-08-20T05:40:35.712Z,7.15
2022-08-20T05:43:04.570Z,6.57
2022-08-20T05:45:31.400Z,5.40
2022-08-20T05:47:58.661Z,7.50
2022-08-20T05:50:33.211Z,6.93
2022-08-20T05:53:01.484Z,4.03
2022-08-20T05:55:28.579Z,5.90
2022-08-20T05:58:01.952Z,4.65
2022-08-20T06:00:31.029Z,4.70
2022-08-20T06:03:15.751Z,5.47
2022-08-20T06:05:42.197Z,4.15
2022-08-20T06:08:09.263Z,3.30
2022-08-20T06:10:36.446Z,7.72
2022-08-20T06:13:04.557Z,3.25
2022-08-20T06:15:31.756Z,4.75
2022-08-20T06:17:58.718Z,7.53
2022-08-20T06:20:25.782Z,7.07
2022-08-20T06:22:52.178Z,3.35
2022-08-20T06:25:18.798Z,6.13
2022-08-20T06:27:45.193Z,3.63
2022-08-20T06:30:12.490Z,6.85
2022-08-20T06:32:40.129Z,5.15
2022-08-20T06:35:07.867Z,3.50
2022-08-20T06:37:36.566Z,4.32
2022-08-20T06:40:14.341Z,3.45
2022-08-20T06:42:47.810Z,6.03
2022-08-20T06:45:16.744Z,3.40
2022-08-20T06:47:45.321Z,4.20
2022-08-20T06:50:13.511Z,4.28
2022-08-20T06:52:52.107Z,4.25
2022-08-20T06:55:27.124Z,4.75
2022-08-20T06:57:59.531Z,3.70
2022-08-20T07:00:26.365Z,2.88
2022-08-20T07:02:52.890Z,4.90
2022-08-20T07:05:19.764Z,3.17
2022-08-20T07:07:49.537Z,3.95
2022-08-20T07:10:17.007Z,4.60
2022-08-20T07:12:43.584Z,3.38
2022-08-20T07:15:10.817Z,5.18
2022-08-20T07:17:37.913Z,3.85
2022-08-20T07:20:09.010Z,4.28
2022-08-20T07:22:36.935Z,3.58
2022-08-20T07:25:04.582Z,6.03
2022-08-20T07:27:31.058Z,4.40
2022-08-20T07:30:15.847Z,2.90
2022-08-20T07:32:46.641Z,3.70
2022-08-20T07:35:15.236Z,3.88
2022-08-20T07:37:42.917Z,3.20
2022-08-20T07:40:13.819Z,5.05
2022-08-20T07:42:40.662Z,3.13
2022-08-20T07:45:10.640Z,3.88
2022-08-20T07:47:37.758Z,3.33
2022-08-20T07:50:04.338Z,5.00
2022-08-20T07:52:30.722Z,4.10
2022-08-20T07:54:57.133Z,3.13
2022-08-20T07:57:23.511Z,3.22
2022-08-20T07:59:50.081Z,5.00
2022-08-20T08:02:16.457Z,3.50
2022-08-20T08:04:42.825Z,3.53
2022-08-20T08:07:09.461Z,5.78
2022-08-20T08:09:36.019Z,6.28
2022-08-20T08:12:03.021Z,5.15
2022-08-20T08:14:31.479Z,4.10
2022-08-20T08:16:59.765Z,5.10
2022-08-20T08:19:28.268Z,2.97
2022-08-20T08:21:56.373Z,6.43
2022-08-20T08:24:28.341Z,5.15
2022-08-20T08:26:55.052Z,8.03
2022-08-20T08:29:24.596Z,4.90
2022-08-20T08:31:51.093Z,7.00
2022-08-20T08:34:17.526Z,5.68
2022-08-20T08:36:44.307Z,4.50
2022-08-20T08:39:10.788Z,4.25
2022-08-20T08:41:37.154Z,4.93
2022-08-20T08:44:12.913Z,7.47
2022-08-20T08:46:40.996Z,9.15
2022-08-20T08:49:09.748Z,6.10
2022-08-20T08:51:48.604Z,3.80
2022-08-20T08:54:17.409Z,7.53
2022-08-20T08:56:43.870Z,7.50
2022-08-20T08:59:17.139Z,5.47
2022-08-20T09:01:54.682Z,7.00
2022-08-20T09:04:23.509Z,4.72
2022-08-20T09:06:53.516Z,6.95
2022-08-20T09:09:22.750Z,4.43
2022-08-20T09:11:51.342Z,6.55
2022-08-20T09:14:17.830Z,12.27
2022-08-20T09:16:52.084Z,4.00
2022-08-20T09:19:19.873Z,8.90
2022-08-20T09:21:46.300Z,4.65
2022-08-20T09:24:12.813Z,6.13
2022-08-20T09:26:39.390Z,6.45
2022-08-20T09:29:05.772Z,4.07
2022-08-20T09:31:32.811Z,8.13
2022-08-20T09:33:59.563Z,5.32
2022-08-20T09:36:31.903Z,5.50
2022-08-20T09:38:59.463Z,3.22
2022-08-20T09:41:25.849Z,5.80
2022-08-20T09:43:52.232Z,5.45
2022-08-20T09:46:18.622Z,6.68
2022-08-20T09:48:45.163Z,5.82
2022-08-20T09:51:11.641Z,8.60
2022-08-20T09:53:38.131Z,3.80
2022-08-20T09:56:04.656Z,7.70
2022-08-20T09:58:34.921Z,6.85
2022-08-20T10:01:03.541Z,6.65
2022-08-20T10:03:29.992Z,6.82
2022-08-20T10:05:56.432Z,5.80
2022-08-20T10:08:22.928Z,9.75
2022-08-20T10:10:49.352Z,7.38
2022-08-20T10:13:15.787Z,6.93
2022-08-20T10:15:42.863Z,4.75
2022-08-20T10:18:10.398Z,6.57
2022-08-20T10:20:38.817Z,8.38
2022-08-20T10:23:05.317Z,5.07
2022-08-20T10:25:31.867Z,6.70
2022-08-20T10:27:59.232Z,5.15
2022-08-20T10:30:25.839Z,6.57
2022-08-20T10:32:52.322Z,8.07
2022-08-20T10:35:21.907Z,8.18
2022-08-20T10:37:48.479Z,4.65
2022-08-20T10:40:15.947Z,8.02
2022-08-20T10:42:43.403Z,8.85
2022-08-20T10:45:14.027Z,3.47
2022-08-20T10:47:40.897Z,4.55
2022-08-20T10:50:09.707Z,6.18
2022-08-20T10:52:36.458Z,5.43
2022-08-20T10:55:04.365Z,6.05
2022-08-20T10:57:31.485Z,7.40
2022-08-20T10:59:58.465Z,3.90
2022-08-20T11:02:25.565Z,9.00
2022-08-20T11:04:52.241Z,2.90
2022-08-20T11:07:55.242Z,6.10
2022-08-20T11:10:19.497Z,5.63
2022-08-20T11:12:46.579Z,5.07
2022-08-20T11:15:13.566Z,6.50
2022-08-20T11:17:41.186Z,4.80
2022-08-20T11:20:08.109Z,5.57
2022-08-20T11:22:35.167Z,3.75
2022-08-20T11:25:01.605Z,6.72
2022-08-20T11:27:30.426Z,6.00
2022-08-20T11:29:56.857Z,4.32
2022-08-20T11:32:23.251Z,3.00
2022-08-20T11:34:49.925Z,5.38
2022-08-20T11:37:17.278Z,4.13
2022-08-20T11:39:46.894Z,5.10
2022-08-20T11:42:13.433Z,4.32
2022-08-20T11:44:39.823Z,5.07
2022-08-20T11:47:07.217Z,4.43
2022-08-20T11:49:34.441Z,6.72
2022-08-20T11:52:01.109Z,3.35
2022-08-20T11:54:29.163Z,5.30
2022-08-20T11:56:57.946Z,3.38
2022-08-20T11:59:25.158Z,7.60
2022-08-20T12:02:02.968Z,4.07
2022-08-20T12:04:30.135Z,9.02
2022-08-20T12:07:07.552Z,6.35
2022-08-20T12:09:34.024Z,7.53
2022-08-20T12:12:00.392Z,4.32
2022-08-20T12:14:27.327Z,4.32
2022-08-20T12:16:53.745Z,3.70
2022-08-20T12:19:20.191Z,4.55
2022-08-20T12:21:46.561Z,3.38
2022-08-20T12:24:12.986Z,3.90
2022-08-20T12:26:39.517Z,3.90
2022-08-20T12:29:06.001Z,1.75
2022-08-20T12:31:32.829Z,3.88
2022-08-20T12:33:59.195Z,3.67
2022-08-20T12:36:25.576Z,5.20
2022-08-20T12:38:51.994Z,4.95
2022-08-20T12:41:20.538Z,2.67
2022-08-20T12:43:46.918Z,2.30
2022-08-20T12:46:13.373Z,2.58
2022-08-20T12:48:39.904Z,4.28
2022-08-20T12:51:06.396Z,2.92
2022-08-20T12:53:32.852Z,2.45
2022-08-20T12:56:02.498Z,3.15
2022-08-20T12:58:28.872Z,3.13
2022-08-20T13:00:55.301Z,4.45
2022-08-20T13:03:21.780Z,3.83
2022-08-20T13:05:48.734Z,4.93
2022-08-20T13:08:15.117Z,2.70
2022-08-20T13:10:44.404Z,3.40
2022-08-20T13:13:11.686Z,5.53
2022-08-20T13:15:40.561Z,4.22
2022-08-20T13:18:07.462Z,3.15
2022-08-20T13:20:34.985Z,4.50
2022-08-20T13:23:01.923Z,2.75
2022-08-20T13:25:28.448Z,3.70
2022-08-20T13:27:57.206Z,3.20
2022-08-20T13:30:24.187Z,3.70
2022-08-20T13:32:50.784Z,5.65
2022-08-20T13:35:17.914Z,3.65
2022-08-20T13:37:44.353Z,4.53
2022-08-20T13:40:11.323Z,2.45
2022-08-20T13:42:38.152Z,3.70
2022-08-20T13:45:04.996Z,5.63
2022-08-20T13:47:34.175Z,4.72
2022-08-20T13:50:03.677Z,4.33
2022-08-20T13:52:30.138Z,2.88
2022-08-20T13:54:57.198Z,5.28
2022-08-20T13:57:24.809Z,5.45
2022-08-20T13:59:52.503Z,3.80
2022-08-20T14:02:19.162Z,5.20
2022-08-20T14:04:45.773Z,5.85
2022-08-20T14:07:13.058Z,2.88
2022-08-20T14:09:40.390Z,5.97
2022-08-20T14:12:07.421Z,3.38
2022-08-20T14:14:33.967Z,5.82
2022-08-20T14:17:00.393Z,5.10
2022-08-20T14:19:27.935Z,4.07
2022-08-20T14:21:54.350Z,5.28
2022-08-20T14:24:20.716Z,3.85
2022-08-20T14:26:47.187Z,4.60
2022-08-20T14:29:13.607Z,7.50
2022-08-20T14:31:43.181Z,4.30
2022-08-20T14:34:09.569Z,2.95
2022-08-20T14:36:35.958Z,3.92
2022-08-20T14:39:02.349Z,3.83
2022-08-20T14:41:28.713Z,3.42
2022-08-20T14:43:55.431Z,5.38
2022-08-20T14:46:21.811Z,6.00
2022-08-20T14:48:53.270Z,4.53
2022-08-20T14:51:19.882Z,4.47
2022-08-20T14:53:46.233Z,6.10
2022-08-20T14:56:12.658Z,5.53
2022-08-20T14:58:39.039Z,4.18
2022-08-20T15:01:05.568Z,3.05
2022-08-20T15:03:31.993Z,4.88
2022-08-20T15:05:58.766Z,6.63
2022-08-20T15:08:28.882Z,6.38
2022-08-20T15:10:55.417Z,5.15
2022-08-20T15:13:21.794Z,3.50
2022-08-20T15:15:48.214Z,7.13
2022-08-20T15:18:14.612Z,4.03
2022-08-20T15:20:41.039Z,3.60
2022-08-20T15:23:07.484Z,4.50
2022-08-20T15:25:36.590Z,2.72
2022-08-20T15:28:04.782Z,4.30
2022-08-20T15:30:31.633Z,5.43
2022-08-20T15:32:58.405Z,3.95
2022-08-20T15:35:26.234Z,5.30
2022-08-20T15:37:54.790Z,6.75
2022-08-20T15:40:27.076Z,6.00
2022-08-20T15:42:54.450Z,5.38
2022-08-20T15:45:22.017Z,4.45
2022-08-20T15:47:50.633Z,3.85
2022-08-20T15:50:33.113Z,3.80
2022-08-20T15:53:10.102Z,5.63
2022-08-20T15:55:37.776Z,4.35
2022-08-20T15:58:06.956Z,4.78
2022-08-20T16:00:40.765Z,6.30
2022-08-20T16:03:19.232Z,3.85
2022-08-20T16:05:52.377Z,6.75
2022-08-20T16:08:18.723Z,4.13
2022-08-20T16:11:04.013Z,3.30
2022-08-20T16:13:39.566Z,3.55
2022-08-20T16:16:11.321Z,1.98
2022-08-20T16:18:38.512Z,6.10
2022-08-20T16:21:08.463Z,5.55
2022-08-20T16:23:37.278Z,4.80
2022-08-20T16:26:03.647Z,6.15
2022-08-20T16:28:36.454Z,5.38
2022-08-20T16:31:05.332Z,6.75
2022-08-20T16:33:48.174Z,7.18
2022-08-20T16:38:41.138Z,5.45
2022-08-20T16:41:15.018Z,4.20
2022-08-20T16:43:55.971Z,5.07
2022-08-20T16:46:27.626Z,9.07
2022-08-20T16:48:58.101Z,5.97
2022-08-20T16:51:36.890Z,3.20
2022-08-20T16:54:03.763Z,4.82
2022-08-20T16:56:34.302Z,3.67
2022-08-20T16:59:05.182Z,5.60
2022-08-20T17:01:31.794Z,5.13
2022-08-20T17:03:58.247Z,7.60
2022-08-20T17:06:27.699Z,5.03
2022-08-20T17:08:55.108Z,3.50
2022-08-20T17:11:33.095Z,8.90
2022-08-20T17:14:05.517Z,6.45
2022-08-20T17:16:40.661Z,5.30
2022-08-20T17:19:10.641Z,5.72
2022-08-20T17:21:38.232Z,5.50
2022-08-20T17:24:21.401Z,4.45
2022-08-20T17:26:57.753Z,4.45
2022-08-20T17:29:33.764Z,7.47
2022-08-20T17:32:15.174Z,7.82
2022-08-20T17:34:46.836Z,7.60
2022-08-20T17:37:19.064Z,8.80
2022-08-20T17:39:47.388Z,4.35
2022-08-20T17:42:17.538Z,7.57
2022-08-20T17:44:47.983Z,10.10
2022-08-20T17:47:16.312Z,5.60
2022-08-20T17:50:01.195Z,6.90
2022-08-20T17:52:38.927Z,5.10
2022-08-20T17:55:07.321Z,6.63
2022-08-20T17:57:37.966Z,4.15
2022-08-20T18:00:08.003Z,7.18
2022-08-20T18:02:34.850Z,6.70
2022-08-20T18:05:01.732Z,5.93
2022-08-20T18:07:38.347Z,5.20
2022-08-20T18:10:12.399Z,6.35
2022-08-20T18:12:51.601Z,5.53
2022-08-20T18:15:23.782Z,5.20
2022-08-20T18:17:54.172Z,7.05
2022-08-20T18:20:39.489Z,4.55
2022-08-20T18:23:09.396Z,4.10
2022-08-20T18:25:41.574Z,7.60
2022-08-20T18:28:15.317Z,7.40
2022-08-20T18:31:01.893Z,5.18
2022-08-20T18:33:39.077Z,7.93
2022-08-20T18:36:10.878Z,4.88
2022-08-20T18:38:41.782Z,7.50
2022-08-20T18:43:35.624Z,4.85
2022-08-20T18:46:09.549Z,10.93
2022-08-20T18:48:35.947Z,5.72
2022-08-20T18:51:03.960Z,5.90
2022-08-20T18:53:34.203Z,4.65
2022-08-20T18:56:03.056Z,5.55
2022-08-20T18:58:52.013Z,6.18
2022-08-20T19:01:18.748Z,7.93
2022-08-20T19:03:46.298Z,8.32
2022-08-20T19:06:15.660Z,6.10
2022-08-20T19:09:01.609Z,11.30
2022-08-20T19:11:27.965Z,4.60
2022-08-20T19:14:19.419Z,3.90
2022-08-20T19:17:09.195Z,6.45
2022-08-20T19:19:38.248Z,9.93
2022-08-20T19:22:05.156Z,6.75
2022-08-20T19:24:33.788Z,5.38
2022-08-20T19:27:04.416Z,7.05
2022-08-20T19:29:32.681Z,2.95
2022-08-20T19:32:00.211Z,5.93
2022-08-20T19:34:26.790Z,8.77
2022-08-20T19:36:54.544Z,7.78
2022-08-20T19:39:21.913Z,4.05
2022-08-20T19:42:00.543Z,10.73
2022-08-20T19:44:26.961Z,7.85
2022-08-20T19:46:53.606Z,4.85
2022-08-20T19:49:23.171Z,9.82
2022-08-20T19:52:08.946Z,4.45
2022-08-20T19:54:43.799Z,9.82
2022-08-20T19:57:10.570Z,5.10
2022-08-20T19:59:36.946Z,7.15
2022-08-20T20:02:20.434Z,7.03
2022-08-20T20:04:55.474Z,6.55
2022-08-20T20:07:27.102Z,5.55
2022-08-20T20:09:55.479Z,10.77
2022-08-20T20:12:22.663Z,7.57
2022-08-20T20:14:50.584Z,10.05
2022-08-20T20:17:23.333Z,6.95
2022-08-20T20:20:00.862Z,4.15
2022-08-20T20:22:27.294Z,5.32
2022-08-20T20:25:02.807Z,6.63
2022-08-20T20:27:29.557Z,16.08
2022-08-20T20:30:05.665Z,6.28
2022-08-20T20:32:33.984Z,6.78
2022-08-20T20:35:01.950Z,9.15
2022-08-20T20:37:49.525Z,5.53
2022-08-20T20:40:20.449Z,8.98
2022-08-20T20:42:58.368Z,6.00
2022-08-20T20:45:29.244Z,4.60
2022-08-20T20:47:55.692Z,10.55
2022-08-20T20:50:30.187Z,10.55
2022-08-20T20:52:57.699Z,8.02
2022-08-20T20:55:35.428Z,9.88
2022-08-20T20:58:02.826Z,8.35
2022-08-20T21:00:30.084Z,10.23
2022-08-20T21:02:56.960Z,6.68
2022-08-20T21:05:24.977Z,11.10
2022-08-20T21:07:53.181Z,10.77
2022-08-20T21:10:20.731Z,8.95
2022-08-20T21:12:56.687Z,8.48
2022-08-20T21:15:24.522Z,8.20
2022-08-20T21:17:51.093Z,9.80
2022-08-20T21:20:17.630Z,9.40
2022-08-20T21:22:44.102Z,8.82
2022-08-20T21:25:10.566Z,6.05
2022-08-20T21:27:37.049Z,9.63
2022-08-20T21:30:05.266Z,9.88
2022-08-20T21:32:31.858Z,8.85
2022-08-20T21:34:58.303Z,8.35
2022-08-20T21:37:24.835Z,9.02
2022-08-20T21:39:51.266Z,8.60
2022-08-20T21:42:28.506Z,5.82
2022-08-20T21:44:56.218Z,8.48
2022-08-20T21:47:22.780Z,6.68
2022-08-20T21:49:49.189Z,12.07
2022-08-20T21:52:15.593Z,3.83
2022-08-20T21:54:41.988Z,5.38
2022-08-20T21:57:13.299Z,6.97
2022-08-20T21:59:41.118Z,6.32
2022-08-20T22:02:07.696Z,10.40
2022-08-20T22:04:35.699Z,9.88
2022-08-20T22:07:02.749Z,5.75
2022-08-20T22:09:29.138Z,6.40
2022-08-20T22:11:57.486Z,8.10
2022-08-20T22:14:27.238Z,4.38
2022-08-20T22:16:53.841Z,9.10
2022-08-20T22:19:20.306Z,5.30
2022-08-20T22:21:46.852Z,8.85
2022-08-20T22:24:13.504Z,7.25
2022-08-20T22:26:40.596Z,8.77
2022-08-20T22:29:08.601Z,7.85
2022-08-20T22:31:37.521Z,4.85
2022-08-20T22:34:04.122Z,8.07
2022-08-20T22:36:32.103Z,4.68
2022-08-20T22:38:58.572Z,4.53
2022-08-20T22:41:25.366Z,8.55
2022-08-20T22:43:56.768Z,5.05
2022-08-20T22:46:26.453Z,5.35
2022-08-20T22:48:53.437Z,8.15
2022-08-20T22:51:26.733Z,5.40
2022-08-20T22:53:53.187Z,8.18
2022-08-20T22:56:21.650Z,11.98
2022-08-20T22:58:51.552Z,4.82
2022-08-20T23:01:18.722Z,9.45
2022-08-20T23:03:45.251Z,10.27
2022-08-20T23:06:12.579Z,10.88
2022-08-20T23:08:39.815Z,5.90
2022-08-20T23:11:06.545Z,11.48
2022-08-20T23:13:32.955Z,7.82
2022-08-20T23:16:00.721Z,7.57
2022-08-20T23:18:27.170Z,9.68
2022-08-20T23:20:56.015Z,5.53
2022-08-20T23:23:23.388Z,8.50
2022-08-20T23:25:50.053Z,5.78
2022-08-20T23:28:17.829Z,10.13
2022-08-20T23:30:44.293Z,8.70
2022-08-20T23:33:12.819Z,7.75
2022-08-20T23:35:39.807Z,5.75
2022-08-20T23:38:06.666Z,8.52
2022-08-20T23:40:33.702Z,7.20
2022-08-20T23:43:00.234Z,12.65
2022-08-20T23:45:27.328Z,6.80
2022-08-20T23:47:53.870Z,5.78
2022-08-20T23:50:24.250Z,6.88
2022-08-20T23:52:51.127Z,4.40
2022-08-20T23:55:18.229Z,8.20
2022-08-20T23:57:44.680Z,7.97
